createdAt,value
2019-06-07T00:00:38.626Z,11.784058
2019-06-07T00:01:22.168Z,11.804199
2019-06-07T00:02:22.211Z,11.784058
2019-06-07T00:03:29.107Z,11.773987
2019-06-07T00:04:22.470Z,11.763916
2019-06-07T00:05:22.486Z,11.773987
2019-06-07T00:06:25.139Z,11.773987
2019-06-07T00:07:22.622Z,11.804199
2019-06-07T00:08:28.353Z,11.804199
2019-06-07T00:09:22.952Z,11.804199
2019-06-07T00:10:35.736Z,11.804199
2019-06-07T00:11:22.978Z,11.81427
2019-06-07T00:12:23.092Z,11.804199
2019-06-07T00:13:23.100Z,11.804199
2019-06-07T00:14:23.108Z,11.784058
2019-06-07T00:15:28.576Z,11.804199
2019-06-07T00:16:23.596Z,11.784058
2019-06-07T00:17:23.114Z,11.763916
2019-06-07T00:18:25.789Z,11.733704
2019-06-07T00:19:23.405Z,11.713562
2019-06-07T00:20:24.584Z,11.703491
2019-06-07T00:22:06.577Z,11.68335
2019-06-07T00:22:32.750Z,11.673279
2019-06-07T00:23:23.879Z,11.632996
2019-06-07T00:24:23.903Z,11.602783
2019-06-07T00:25:24.590Z,11.582642
2019-06-07T00:26:23.921Z,11.552429
2019-06-07T00:27:24.058Z,11.552429
2019-06-07T00:28:24.087Z,11.522217
2019-06-07T00:29:24.068Z,11.512146
2019-06-07T00:30:42.045Z,11.492004
2019-06-07T00:31:24.829Z,11.481934
2019-06-07T00:32:24.353Z,11.481934
2019-06-07T00:33:25.205Z,11.451721
2019-06-07T00:34:25.060Z,11.481934
2019-06-07T00:35:24.645Z,11.451721
2019-06-07T00:36:24.636Z,11.481934
2019-06-07T00:37:25.538Z,11.451721
2019-06-07T00:38:24.791Z,11.451721
2019-06-07T00:39:26.014Z,11.451721
2019-06-07T00:40:31.691Z,11.451721
2019-06-07T00:41:25.226Z,11.451721
2019-06-07T00:42:25.219Z,11.451721
2019-06-07T00:43:28.089Z,11.44165
2019-06-07T00:44:25.337Z,11.451721
2019-06-07T00:45:25.442Z,11.451721
2019-06-07T00:46:25.513Z,11.451721
2019-06-07T00:47:25.825Z,11.451721
2019-06-07T00:48:31.869Z,11.451721
2019-06-07T00:49:38.095Z,11.451721
2019-06-07T00:50:25.559Z,11.451721
2019-06-07T00:51:25.603Z,11.451721
2019-06-07T00:53:31.223Z,11.44165
2019-06-07T00:54:25.815Z,11.44165
2019-06-07T00:55:27.591Z,11.43158
2019-06-07T00:56:25.841Z,11.411438
2019-06-07T00:57:25.862Z,11.43158
2019-06-07T00:58:27.728Z,11.411438
2019-06-07T00:59:29.392Z,11.401367
2019-06-07T01:00:26.358Z,11.401367
2019-06-07T01:01:26.320Z,11.371155
2019-06-07T01:02:31.113Z,11.351013
2019-06-07T01:03:26.449Z,11.340942
2019-06-07T01:04:27.174Z,11.330872
2019-06-07T01:05:31.240Z,11.31073
2019-06-07T01:06:26.786Z,11.300659
2019-06-07T01:07:26.800Z,11.300659
2019-06-07T01:08:29.811Z,11.300659
2019-06-07T01:09:26.962Z,11.270447
2019-06-07T01:10:51.290Z,11.300659
2019-06-07T01:11:27.121Z,11.270447
2019-06-07T01:12:27.394Z,11.260376
2019-06-07T01:13:27.360Z,11.270447
2019-06-07T01:14:28.279Z,11.250305
2019-06-07T01:15:29.214Z,11.230164
2019-06-07T01:16:27.498Z,11.220093
2019-06-07T01:17:40.755Z,11.199951
2019-06-07T01:18:38.906Z,11.199951
2019-06-07T01:19:28.079Z,11.17981
2019-06-07T01:20:27.800Z,11.149597
2019-06-07T01:21:29.298Z,11.129456
2019-06-07T01:22:29.323Z,11.099243
2019-06-07T01:24:04.182Z,11.079102
2019-06-07T01:24:28.283Z,11.079102
2019-06-07T01:25:28.922Z,11.069031
2019-06-07T01:26:30.225Z,11.069031
2019-06-07T01:27:28.709Z,11.069031
2019-06-07T01:28:30.069Z,11.048889
2019-06-07T01:29:30.993Z,11.048889
2019-06-07T01:30:29.220Z,11.018677
2019-06-07T01:31:31.455Z,11.018677
2019-06-07T01:32:31.680Z,11.018677
2019-06-07T01:33:49.734Z,11.008606
2019-06-07T01:34:29.127Z,10.978394
2019-06-07T01:35:29.801Z,10.968323
2019-06-07T01:36:30.888Z,10.948181
2019-06-07T01:37:30.266Z,10.917969
2019-06-07T01:38:29.986Z,10.917969
2019-06-07T01:39:31.630Z,10.887756
2019-06-07T01:40:32.469Z,10.857544
2019-06-07T01:41:30.662Z,10.837402
2019-06-07T01:42:30.999Z,10.817261
2019-06-07T01:43:31.000Z,10.797119
2019-06-07T01:44:30.993Z,10.787048
2019-06-07T01:45:31.115Z,10.766907
2019-06-07T01:46:29.701Z,10.746765
2019-06-07T01:47:31.989Z,10.716553
2019-06-07T01:48:48.379Z,10.706482
2019-06-07T01:49:30.920Z,10.68634
2019-06-07T01:50:30.068Z,10.68634
2019-06-07T01:51:30.656Z,10.67627
2019-06-07T01:52:30.160Z,10.666199
2019-06-07T01:53:31.569Z,10.666199
2019-06-07T01:55:32.734Z,10.666199
2019-06-07T01:56:30.318Z,10.666199
2019-06-07T01:57:43.402Z,10.67627
2019-06-07T01:58:31.413Z,10.666199
2019-06-07T01:59:31.360Z,10.67627
2019-06-07T02:00:32.452Z,10.67627
2019-06-07T02:01:35.060Z,10.67627
2019-06-07T02:02:31.782Z,10.68634
2019-06-07T02:03:33.057Z,10.68634
2019-06-07T02:04:33.002Z,10.706482
2019-06-07T02:05:32.419Z,10.706482
2019-06-07T02:06:32.081Z,10.68634
2019-06-07T02:07:32.962Z,10.68634
2019-06-07T02:08:34.144Z,10.67627
2019-06-07T02:09:32.091Z,10.67627
2019-06-07T02:10:33.555Z,10.67627
2019-06-07T02:11:31.795Z,10.666199
2019-06-07T02:12:39.746Z,10.646057
2019-06-07T02:13:31.586Z,10.635986
2019-06-07T02:14:33.364Z,10.635986
2019-06-07T02:15:36.420Z,10.635986
2019-06-07T02:16:32.559Z,10.635986
2019-06-07T02:17:33.168Z,10.615845
2019-06-07T02:18:34.367Z,10.605774
2019-06-07T02:19:33.306Z,10.585632
2019-06-07T02:20:34.364Z,10.575562
2019-06-07T02:21:34.297Z,10.575562
2019-06-07T02:22:32.642Z,10.545349
2019-06-07T02:23:33.703Z,10.545349
2019-06-07T02:24:35.165Z,10.525208
2019-06-07T02:25:43.540Z,10.525208
2019-06-07T02:26:33.435Z,10.525208
2019-06-07T02:27:32.805Z,10.525208
2019-06-07T02:28:42.885Z,10.525208
2019-06-07T02:29:33.606Z,10.545349
2019-06-07T02:30:43.855Z,10.525208
2019-06-07T02:31:38.982Z,10.505066
2019-06-07T02:32:36.157Z,10.505066
2019-06-07T02:33:37.435Z,10.525208
2019-06-07T02:34:38.494Z,10.494995
2019-06-07T02:35:38.807Z,10.484924
2019-06-07T02:36:38.648Z,10.484924
2019-06-07T02:37:36.471Z,10.464783
2019-06-07T02:38:37.118Z,10.454712
2019-06-07T02:39:37.525Z,10.43457
2019-06-07T02:40:37.099Z,10.454712
2019-06-07T02:41:38.741Z,10.43457
2019-06-07T02:42:36.474Z,10.43457
2019-06-07T02:43:36.841Z,10.4245
2019-06-07T02:44:38.893Z,10.4245
2019-06-07T02:45:42.101Z,10.414429
2019-06-07T02:46:44.672Z,10.384216
2019-06-07T02:47:36.010Z,10.364075
2019-06-07T02:48:39.418Z,10.343933
2019-06-07T02:49:40.457Z,10.343933
2019-06-07T02:50:37.901Z,10.343933
2019-06-07T02:51:40.968Z,10.333862
2019-06-07T02:52:39.848Z,10.333862
2019-06-07T02:53:38.215Z,10.333862
2019-06-07T02:54:36.768Z,10.333862
2019-06-07T02:55:57.269Z,10.313721
2019-06-07T02:56:43.841Z,10.313721
2019-06-07T02:57:36.678Z,10.313721
2019-06-07T02:58:37.791Z,10.30365
2019-06-07T02:59:54.227Z,10.313721
2019-06-07T03:00:58.443Z,10.313721
2019-06-07T03:01:39.276Z,10.313721
2019-06-07T03:02:40.417Z,10.313721
2019-06-07T03:03:39.352Z,10.30365
2019-06-07T03:04:40.771Z,10.30365
2019-06-07T03:05:36.372Z,10.30365
2019-06-07T03:06:38.860Z,10.283508
2019-06-07T03:07:38.485Z,10.30365
2019-06-07T03:08:36.559Z,10.283508
2019-06-07T03:09:36.419Z,10.283508
2019-06-07T03:10:36.902Z,10.30365
2019-06-07T03:11:35.982Z,10.283508
2019-06-07T03:12:35.506Z,10.283508
2019-06-07T03:13:37.088Z,10.273438
2019-06-07T03:14:35.224Z,10.253296
2019-06-07T03:15:42.644Z,10.283508
2019-06-07T03:16:37.181Z,10.283508
2019-06-07T03:17:36.410Z,10.283508
2019-06-07T03:18:36.384Z,10.273438
2019-06-07T03:19:37.680Z,10.283508
2019-06-07T03:20:36.725Z,10.273438
2019-06-07T03:21:36.401Z,10.273438
2019-06-07T03:22:39.364Z,10.273438
2019-06-07T03:23:36.177Z,10.273438
2019-06-07T03:24:36.124Z,10.273438
2019-06-07T03:25:36.985Z,10.273438
2019-06-07T03:27:11.663Z,10.273438
2019-06-07T03:27:46.420Z,10.273438
2019-06-07T03:28:37.451Z,10.273438
2019-06-07T03:29:36.745Z,10.283508
2019-06-07T03:30:42.640Z,10.283508
2019-06-07T03:31:41.317Z,10.273438
2019-06-07T03:32:42.772Z,10.30365
2019-06-07T03:33:41.109Z,10.283508
2019-06-07T03:34:40.855Z,10.30365
2019-06-07T03:35:37.420Z,10.30365
2019-06-07T03:36:39.136Z,10.313721
2019-06-07T03:37:40.550Z,10.343933
2019-06-07T03:38:37.519Z,10.343933
2019-06-07T03:39:37.114Z,10.364075
2019-06-07T03:40:38.434Z,10.384216
2019-06-07T03:41:41.859Z,10.394287
2019-06-07T03:42:38.721Z,10.394287
2019-06-07T03:43:40.067Z,10.414429
2019-06-07T03:44:38.839Z,10.4245
2019-06-07T03:45:40.947Z,10.43457
2019-06-07T03:46:38.821Z,10.454712
2019-06-07T03:47:41.347Z,10.43457
2019-06-07T03:48:40.715Z,10.454712
2019-06-07T03:49:39.968Z,10.454712
2019-06-07T03:50:41.425Z,10.464783
2019-06-07T03:51:39.590Z,10.494995
2019-06-07T03:52:40.626Z,10.505066
2019-06-07T03:53:40.534Z,10.525208
2019-06-07T03:54:39.753Z,10.545349
2019-06-07T03:55:38.973Z,10.525208
2019-06-07T03:56:38.535Z,10.565491
2019-06-07T03:58:29.067Z,10.565491
2019-06-07T03:58:48.459Z,10.585632
2019-06-07T03:59:40.941Z,10.605774
2019-06-07T04:00:42.565Z,10.605774
2019-06-07T04:01:39.842Z,10.615845
2019-06-07T04:02:41.479Z,10.635986
2019-06-07T04:03:46.181Z,10.646057
2019-06-07T04:04:39.536Z,10.67627
2019-06-07T04:05:41.133Z,10.67627
2019-06-07T04:06:41.450Z,10.68634
2019-06-07T04:07:43.385Z,10.706482
2019-06-07T04:08:39.979Z,10.746765
2019-06-07T04:09:41.946Z,10.746765
2019-06-07T04:10:53.023Z,10.756836
2019-06-07T04:11:39.336Z,10.766907
2019-06-07T04:12:39.855Z,10.797119
2019-06-07T04:13:42.611Z,10.857544
2019-06-07T04:14:42.473Z,10.887756
2019-06-07T04:15:41.307Z,10.93811
2019-06-07T04:16:43.618Z,10.968323
2019-06-07T04:17:45.423Z,10.998535
2019-06-07T04:18:41.948Z,11.008606
2019-06-07T04:19:43.036Z,11.008606
2019-06-07T04:20:41.418Z,11.018677
2019-06-07T04:21:42.448Z,11.038818
2019-06-07T04:22:42.070Z,11.018677
2019-06-07T04:23:45.178Z,11.038818
2019-06-07T04:24:41.896Z,11.048889
2019-06-07T04:25:42.464Z,11.048889
2019-06-07T04:26:43.468Z,11.079102
2019-06-07T04:27:40.980Z,11.099243
2019-06-07T04:29:30.182Z,11.129456
2019-06-07T04:30:02.868Z,11.129456
2019-06-07T04:30:41.783Z,11.129456
2019-06-07T04:31:42.718Z,11.149597
2019-06-07T04:32:44.620Z,11.159668
2019-06-07T04:33:43.478Z,11.159668
2019-06-07T04:34:42.775Z,11.17981
2019-06-07T04:35:42.862Z,11.17981
2019-06-07T04:36:55.052Z,11.18988
2019-06-07T04:37:41.455Z,11.199951
2019-06-07T04:38:42.425Z,11.220093
2019-06-07T04:39:44.492Z,11.230164
2019-06-07T04:40:42.726Z,11.250305
2019-06-07T04:41:40.906Z,11.270447
2019-06-07T04:42:44.747Z,11.270447
2019-06-07T04:43:41.265Z,11.31073
2019-06-07T04:44:42.701Z,11.340942
2019-06-07T04:45:50.266Z,11.381226
2019-06-07T04:46:42.640Z,11.411438
2019-06-07T04:47:42.230Z,11.451721
2019-06-07T04:48:42.949Z,11.481934
2019-06-07T04:49:43.872Z,11.512146
2019-06-07T04:50:43.528Z,11.522217
2019-06-07T04:51:42.349Z,11.532288
2019-06-07T04:52:44.821Z,11.532288
2019-06-07T04:53:43.189Z,11.5625
2019-06-07T04:54:45.717Z,11.592712
2019-06-07T04:55:41.794Z,11.602783
2019-06-07T04:56:44.215Z,11.632996
2019-06-07T04:57:43.050Z,11.653137
2019-06-07T04:58:41.290Z,11.673279
2019-06-07T05:00:10.405Z,11.703491
2019-06-07T05:00:53.877Z,11.713562
2019-06-07T05:01:42.752Z,11.743774
2019-06-07T05:02:43.361Z,11.743774
2019-06-07T05:03:44.200Z,11.763916
2019-06-07T05:04:42.303Z,11.784058
2019-06-07T05:05:43.721Z,11.804199
2019-06-07T05:06:42.459Z,11.81427
2019-06-07T05:07:45.912Z,11.834412
2019-06-07T05:08:43.403Z,11.884766
2019-06-07T05:09:43.218Z,11.894836
2019-06-07T05:10:43.853Z,11.925049
2019-06-07T05:11:44.730Z,11.94519
2019-06-07T05:12:44.097Z,11.965332
2019-06-07T05:13:43.783Z,12.015686
2019-06-07T05:14:43.940Z,12.025757
2019-06-07T05:15:42.395Z,12.06604
2019-06-07T05:16:44.219Z,12.106323
2019-06-07T05:17:43.414Z,12.146606
2019-06-07T05:18:43.171Z,12.176819
2019-06-07T05:19:44.414Z,12.19696
2019-06-07T05:20:44.425Z,12.247314
2019-06-07T05:21:59.744Z,12.277527
2019-06-07T05:22:45.041Z,12.31781
2019-06-07T05:24:05.194Z,12.348022
2019-06-07T05:24:43.873Z,12.368164
2019-06-07T05:25:44.692Z,12.43866
2019-06-07T05:26:42.833Z,12.468872
2019-06-07T05:27:46.587Z,12.499084
2019-06-07T05:28:42.994Z,12.529297
2019-06-07T05:29:44.288Z,12.549438
2019-06-07T05:31:04.277Z,12.619934
2019-06-07T05:31:45.299Z,12.660217
2019-06-07T05:32:45.777Z,12.7005
2019-06-07T05:33:43.441Z,12.750854
2019-06-07T05:34:47.101Z,12.811279
2019-06-07T05:35:43.648Z,12.861633
2019-06-07T05:36:45.013Z,12.911987
2019-06-07T05:37:45.740Z,12.992554
2019-06-07T05:38:44.833Z,13.022766
2019-06-07T05:39:46.279Z,13.063049
2019-06-07T05:40:48.320Z,13.113403
2019-06-07T05:41:44.401Z,13.173828
2019-06-07T05:42:46.509Z,13.214111
2019-06-07T05:43:49.797Z,13.234253
2019-06-07T05:44:45.655Z,13.264465
2019-06-07T05:45:46.838Z,13.304749
2019-06-07T05:46:46.846Z,13.314819
2019-06-07T05:47:50.255Z,13.334961
2019-06-07T05:48:43.980Z,13.355103
2019-06-07T05:49:46.940Z,13.365173
2019-06-07T05:50:55.289Z,13.385315
2019-06-07T05:51:45.028Z,13.385315
2019-06-07T05:52:47.298Z,13.415527
2019-06-07T05:53:45.901Z,13.44574
2019-06-07T05:54:45.522Z,13.465881
2019-06-07T05:55:46.838Z,13.465881
2019-06-07T05:56:45.310Z,13.465881
2019-06-07T05:57:48.716Z,13.496094
2019-06-07T05:58:45.190Z,13.516235
2019-06-07T05:59:46.729Z,13.566589
2019-06-07T06:00:47.151Z,13.566589
2019-06-07T06:01:53.004Z,13.596802
2019-06-07T06:02:59.980Z,13.606873
2019-06-07T06:03:47.990Z,13.647156
2019-06-07T06:04:48.675Z,13.707581
2019-06-07T06:05:53.726Z,13.727722
2019-06-07T06:06:47.027Z,13.757935
2019-06-07T06:07:50.090Z,13.778076
2019-06-07T06:08:47.564Z,13.818359
2019-06-07T06:09:46.150Z,13.858643
2019-06-07T06:10:48.396Z,13.888855
2019-06-07T06:11:56.301Z,13.94928
2019-06-07T06:12:51.606Z,14.342041
2019-06-07T06:14:04.914Z,15.167847
2019-06-07T06:14:47.027Z,16.104431
2019-06-07T06:15:58.878Z,16.607971
2019-06-07T06:16:49.295Z,16.688538
2019-06-07T06:17:48.924Z,16.537476
2019-06-07T06:18:47.264Z,16.255493
2019-06-07T06:19:49.614Z,16.033936
2019-06-07T06:21:09.321Z,15.913086
2019-06-07T06:21:47.105Z,15.84259
2019-06-07T06:22:48.579Z,15.751953
2019-06-07T06:23:48.733Z,15.631104
2019-06-07T06:25:16.321Z,15.510254
2019-06-07T06:25:53.142Z,15.429688
2019-06-07T06:26:51.975Z,15.318909
2019-06-07T06:28:10.786Z,15.258484
2019-06-07T06:28:46.595Z,15.248413
2019-06-07T06:29:50.082Z,15.177917
2019-06-07T06:30:47.850Z,15.117493
2019-06-07T06:32:30.135Z,15.107422
2019-06-07T06:32:54.869Z,15.077209
2019-06-07T06:33:49.540Z,15.077209
2019-06-07T06:34:49.652Z,15.097351
2019-06-07T06:35:49.270Z,15.097351
2019-06-07T06:36:49.756Z,15.117493
2019-06-07T06:37:52.575Z,15.137634
2019-06-07T06:38:49.573Z,15.147705
2019-06-07T06:39:49.938Z,15.187988
2019-06-07T06:40:52.630Z,15.228271
2019-06-07T06:41:58.297Z,15.258484
2019-06-07T06:42:48.952Z,15.288696
2019-06-07T06:43:50.220Z,15.288696
2019-06-07T06:44:52.264Z,15.318909
2019-06-07T06:45:50.445Z,15.349121
2019-06-07T06:46:56.821Z,15.409546
2019-06-07T06:47:50.449Z,15.550537
2019-06-07T06:48:54.375Z,15.852661
2019-06-07T06:49:49.859Z,16.275635
2019-06-07T06:50:51.901Z,16.648254
2019-06-07T06:51:51.215Z,16.889954
2019-06-07T06:52:51.302Z,17.010803
2019-06-07T06:53:49.761Z,17.09137
2019-06-07T06:54:55.152Z,17.302856
2019-06-07T06:55:49.872Z,17.85675
2019-06-07T06:56:50.264Z,18.73291
2019-06-07T06:57:51.354Z,19.639282
2019-06-07T06:59:26.620Z,20.525513
2019-06-07T06:59:51.032Z,21.401672
2019-06-07T07:00:56.611Z,22.227478
2019-06-07T07:01:50.354Z,22.398682
2019-06-07T07:03:35.950Z,22.207336
2019-06-07T07:04:04.851Z,22.24762
2019-06-07T07:04:52.496Z,22.297974
2019-06-07T07:05:50.655Z,22.358398
2019-06-07T07:06:50.611Z,22.590027
2019-06-07T07:07:51.563Z,22.549744
2019-06-07T07:08:50.836Z,22.519531
2019-06-07T07:09:54.585Z,22.37854
2019-06-07T07:10:53.014Z,21.965637
2019-06-07T07:12:00.556Z,21.844788
2019-06-07T07:12:52.248Z,21.854858
2019-06-07T07:13:54.120Z,21.875
2019-06-07T07:14:52.851Z,21.683655
2019-06-07T07:15:51.667Z,21.784363
2019-06-07T07:16:54.373Z,22.026062
2019-06-07T07:18:03.393Z,22.136841
2019-06-07T07:18:52.800Z,22.459106
2019-06-07T07:19:52.219Z,22.861938
2019-06-07T07:20:51.181Z,23.083496
2019-06-07T07:21:52.946Z,22.982788
2019-06-07T07:22:53.519Z,22.781372
2019-06-07T07:24:12.154Z,22.962646
2019-06-07T07:24:53.282Z,23.446045
2019-06-07T07:25:53.507Z,23.687744
2019-06-07T07:26:52.804Z,24.14093
2019-06-07T07:27:53.754Z,24.966736
2019-06-07T07:28:51.669Z,25.671692
2019-06-07T07:30:04.783Z,26.185303
2019-06-07T07:30:54.772Z,26.557922
2019-06-07T07:31:53.779Z,26.487427
2019-06-07T07:32:53.393Z,26.366577
2019-06-07T07:34:54.389Z,25.852966
2019-06-07T07:36:15.140Z,25.832825
2019-06-07T07:36:58.168Z,25.289001
2019-06-07T07:37:55.638Z,25.007019
2019-06-07T07:39:00.210Z,24.815674
2019-06-07T07:39:56.911Z,24.956665
2019-06-07T07:41:14.368Z,25.440063
2019-06-07T07:42:13.568Z,25.178223
2019-06-07T07:42:55.037Z,24.312134
2019-06-07T07:44:01.514Z,24.060364
2019-06-07T07:44:54.860Z,24.130859
2019-06-07T07:45:58.689Z,23.697815
2019-06-07T07:46:54.578Z,23.355408
2019-06-07T07:48:08.057Z,23.50647
2019-06-07T07:48:54.666Z,23.999939
2019-06-07T07:49:56.304Z,23.858948
2019-06-07T07:50:56.719Z,23.063354
2019-06-07T07:51:56.917Z,22.992859
2019-06-07T07:52:55.816Z,22.861938
2019-06-07T07:54:00.498Z,23.164062
2019-06-07T07:54:56.554Z,23.415833
2019-06-07T07:55:54.774Z,23.284912
2019-06-07T07:56:56.003Z,23.355408
2019-06-07T07:57:58.765Z,23.728027
2019-06-07T07:58:55.988Z,24.070435
2019-06-07T08:00:05.792Z,24.815674
2019-06-07T08:01:07.564Z,25.359497
2019-06-07T08:01:56.027Z,25.661621
2019-06-07T08:02:58.595Z,25.409851
2019-06-07T08:03:54.815Z,24.735107
2019-06-07T08:05:16.299Z,24.503479
2019-06-07T08:05:58.844Z,24.533691
2019-06-07T08:06:56.029Z,24.714966
2019-06-07T08:07:59.780Z,24.815674
2019-06-07T08:08:57.005Z,24.584045
2019-06-07T08:09:57.628Z,23.476257
2019-06-07T08:10:56.349Z,23.707886
2019-06-07T08:11:59.942Z,24.01001
2019-06-07T08:13:14.006Z,24.372559
2019-06-07T08:13:57.585Z,23.838806
2019-06-07T08:14:58.391Z,24.040222
2019-06-07T08:15:58.668Z,24.584045
2019-06-07T08:16:57.815Z,24.251709
2019-06-07T08:17:57.638Z,24.533691
2019-06-07T08:18:58.423Z,24.382629
2019-06-07T08:19:57.509Z,24.503479
2019-06-07T08:21:14.759Z,24.634399
2019-06-07T08:21:56.551Z,24.161072
2019-06-07T08:22:59.260Z,24.090576
2019-06-07T08:24:00.060Z,24.51355
2019-06-07T08:24:59.070Z,24.936523
2019-06-07T08:25:57.166Z,25.218506
2019-06-07T08:27:17.157Z,25.490417
2019-06-07T08:27:58.921Z,25.52063
2019-06-07T08:28:59.003Z,24.694824
2019-06-07T08:30:15.085Z,24.281921
2019-06-07T08:31:05.707Z,24.463196
2019-06-07T08:31:58.595Z,24.342346
2019-06-07T08:33:11.885Z,24.191284
2019-06-07T08:34:00.118Z,23.516541
2019-06-07T08:35:03.022Z,23.315125
2019-06-07T08:36:06.998Z,23.2547
2019-06-07T08:37:01.211Z,23.516541
2019-06-07T08:38:29.580Z,23.617249
2019-06-07T08:39:06.712Z,23.325195
2019-06-07T08:39:59.589Z,23.113708
2019-06-07T08:41:05.780Z,23.184204
2019-06-07T08:42:11.777Z,23.395691
2019-06-07T08:43:12.913Z,23.959656
2019-06-07T08:44:00.481Z,24.443054
2019-06-07T08:45:03.517Z,24.805603
2019-06-07T08:46:02.030Z,24.815674
2019-06-07T08:47:16.578Z,24.654541
2019-06-07T08:48:05.251Z,24.291992
2019-06-07T08:49:03.927Z,23.989868
2019-06-07T08:50:02.559Z,23.576965
2019-06-07T08:51:06.213Z,23.2547
2019-06-07T08:52:07.783Z,22.781372
2019-06-07T08:53:11.025Z,22.549744
2019-06-07T08:54:10.827Z,22.408752
2019-06-07T08:55:04.443Z,22.227478
2019-06-07T08:56:06.792Z,22.036133
2019-06-07T08:57:14.961Z,21.985779
2019-06-07T08:58:03.986Z,21.814575
2019-06-07T08:59:02.853Z,21.683655
2019-06-07T09:00:06.485Z,21.512451
2019-06-07T09:01:06.246Z,21.37146
2019-06-07T09:02:04.143Z,21.170044
2019-06-07T09:03:04.769Z,21.149902
2019-06-07T09:04:05.798Z,21.190186
2019-06-07T09:05:06.704Z,21.129761
2019-06-07T09:06:06.199Z,21.049194
2019-06-07T09:07:07.585Z,21.170044
2019-06-07T09:08:23.321Z,21.774292
2019-06-07T09:09:03.277Z,22.398682
2019-06-07T09:10:09.192Z,22.76123
2019-06-07T09:11:05.114Z,22.841797
2019-06-07T09:12:07.875Z,23.355408
2019-06-07T09:13:07.347Z,24.281921
2019-06-07T09:14:04.817Z,24.956665
2019-06-07T09:15:14.450Z,25.490417
2019-06-07T09:16:06.679Z,25.178223
2019-06-07T09:17:08.638Z,24.664612
2019-06-07T09:19:06.561Z,24.191284
2019-06-07T09:20:07.599Z,24.382629
2019-06-07T09:21:07.621Z,24.503479
2019-06-07T09:22:08.045Z,24.533691
2019-06-07T09:23:11.285Z,24.412842
2019-06-07T09:24:08.727Z,24.221497
2019-06-07T09:25:09.830Z,23.264771
2019-06-07T09:26:10.419Z,22.841797
2019-06-07T09:27:05.847Z,22.579956
2019-06-07T09:28:07.796Z,22.297974
2019-06-07T09:29:08.280Z,22.24762
2019-06-07T09:30:11.141Z,22.217407
2019-06-07T09:31:08.861Z,22.24762
2019-06-07T09:32:05.581Z,22.277832
2019-06-07T09:33:05.690Z,22.076416
2019-06-07T09:34:06.506Z,22.066345
2019-06-07T09:35:07.921Z,22.00592
2019-06-07T09:36:07.832Z,21.834717
2019-06-07T09:37:41.431Z,21.663513
2019-06-07T09:38:12.466Z,21.683655
2019-06-07T09:39:08.175Z,21.784363
2019-06-07T09:40:19.570Z,21.814575
2019-06-07T09:41:06.069Z,22.00592
2019-06-07T09:42:09.911Z,21.935425
2019-06-07T09:43:50.126Z,21.875
2019-06-07T09:44:21.007Z,21.955566
2019-06-07T09:45:08.695Z,22.076416
2019-06-07T09:46:11.688Z,22.187195
2019-06-07T09:47:21.937Z,22.24762
2019-06-07T09:48:13.231Z,22.37854
2019-06-07T09:49:15.127Z,22.308044
2019-06-07T09:50:09.667Z,22.096558
2019-06-07T09:51:12.641Z,21.885071
2019-06-07T09:52:09.010Z,21.603088
2019-06-07T09:53:18.714Z,21.62323
2019-06-07T09:54:08.712Z,21.653442
2019-06-07T09:55:19.416Z,21.693726
2019-06-07T09:56:08.835Z,21.593018
2019-06-07T09:57:11.756Z,21.542664
2019-06-07T09:58:30.814Z,21.381531
2019-06-07T09:59:12.290Z,21.300964
2019-06-07T10:00:36.684Z,21.411743
2019-06-07T10:01:12.381Z,21.542664
2019-06-07T10:02:12.976Z,21.542664
2019-06-07T10:03:17.528Z,21.351318
2019-06-07T10:04:11.893Z,21.200256
2019-06-07T10:05:13.382Z,21.190186
2019-06-07T10:06:09.561Z,21.230469
2019-06-07T10:07:16.381Z,21.129761
2019-06-07T10:08:24.235Z,21.129761
2019-06-07T10:11:08.732Z,21.411743
2019-06-07T10:12:08.573Z,21.300964
2019-06-07T10:13:08.813Z,21.351318
2019-06-07T10:14:08.760Z,21.472168
2019-06-07T10:15:09.003Z,21.582947
2019-06-07T10:16:08.842Z,21.653442
2019-06-07T10:17:09.169Z,21.683655
2019-06-07T10:18:09.164Z,21.603088
2019-06-07T10:19:09.857Z,21.74408
2019-06-07T10:20:09.733Z,21.875
2019-06-07T10:21:14.477Z,21.482239
2019-06-07T10:22:09.552Z,21.472168
2019-06-07T10:23:09.966Z,21.381531
2019-06-07T10:24:09.701Z,21.441956
2019-06-07T10:25:08.669Z,21.512451
2019-06-07T10:26:10.050Z,21.542664
2019-06-07T10:27:09.928Z,21.703796
2019-06-07T10:28:10.117Z,21.99585
2019-06-07T10:29:09.121Z,22.469177
2019-06-07T10:30:08.670Z,23.023071
2019-06-07T10:31:09.789Z,23.768311
2019-06-07T10:32:09.213Z,24.362488
2019-06-07T10:33:08.825Z,24.130859
2019-06-07T10:34:08.859Z,23.788452
2019-06-07T10:35:10.085Z,24.372559
2019-06-07T10:36:09.105Z,25.238647
2019-06-07T10:37:11.521Z,25.560913
2019-06-07T10:38:09.167Z,26.175232
2019-06-07T10:39:09.204Z,26.598206
2019-06-07T10:40:09.388Z,26.759338
2019-06-07T10:41:09.201Z,26.437073
2019-06-07T10:42:09.668Z,26.598206
2019-06-07T10:43:12.487Z,27.041321
2019-06-07T10:44:09.434Z,27.444153
2019-06-07T10:45:10.273Z,27.011108
2019-06-07T10:46:09.897Z,26.14502
2019-06-07T10:47:10.059Z,25.812683
2019-06-07T10:48:09.935Z,26.084595
2019-06-07T10:49:10.331Z,26.608276
2019-06-07T10:50:10.366Z,27.182312
2019-06-07T10:51:11.410Z,27.474365
2019-06-07T10:52:10.424Z,28.118896
2019-06-07T10:53:10.700Z,28.833923
2019-06-07T10:54:20.724Z,28.713074
2019-06-07T10:55:10.621Z,28.894348
2019-06-07T10:56:10.665Z,29.176331
2019-06-07T10:57:12.755Z,28.864136
2019-06-07T10:58:11.034Z,27.90741
2019-06-07T10:59:10.222Z,27.66571
2019-06-07T11:00:11.480Z,27.705994
2019-06-07T11:01:09.790Z,28.098755
2019-06-07T11:02:09.841Z,28.380737
2019-06-07T11:03:09.984Z,28.471375
2019-06-07T11:04:09.838Z,28.974915
2019-06-07T11:05:10.164Z,29.055481
2019-06-07T11:06:10.140Z,29.41803
2019-06-07T11:07:10.144Z,29.790649
2019-06-07T11:08:10.297Z,29.710083
2019-06-07T11:09:10.074Z,30.022278
2019-06-07T11:10:15.367Z,30.42511
2019-06-07T11:11:10.099Z,30.646667
2019-06-07T11:12:10.686Z,30.616455
2019-06-07T11:13:10.431Z,30.062561
2019-06-07T11:14:10.527Z,29.810791
2019-06-07T11:15:10.965Z,29.689941
2019-06-07T11:16:11.185Z,29.6698
2019-06-07T11:17:11.299Z,29.307251
2019-06-07T11:18:10.321Z,29.236755
2019-06-07T11:19:13.676Z,28.874207
2019-06-07T11:20:10.482Z,28.471375
2019-06-07T11:21:10.320Z,27.78656
2019-06-07T11:22:10.347Z,27.90741
2019-06-07T11:23:10.380Z,28.380737
2019-06-07T11:24:10.447Z,28.995056
2019-06-07T11:25:11.028Z,29.468384
2019-06-07T11:26:10.628Z,29.901428
2019-06-07T11:27:11.572Z,29.901428
2019-06-07T11:28:10.839Z,29.569092
2019-06-07T11:29:11.339Z,29.740295
2019-06-07T11:30:10.945Z,30.062561
2019-06-07T11:31:11.367Z,30.062561
2019-06-07T11:32:10.969Z,30.112915
2019-06-07T11:33:12.276Z,29.397888
2019-06-07T11:34:11.021Z,29.438171